ENBL

Førde Airport

Airport
ICAO code
ENBL
IATA Code
FDE
Summary
ICAO Region
EUR
ICAO Territory
Location

Bringelandsåsen, Gaular, Sogn og Fjordane,

Serving
Førde
Elevation
1046 ft
Coordinates
61° 23' 29" N , 5° 45' 31" E
KCC
Dfc
Metar
Observation
ENBL 171820Z 01004KT 9999 FEW030 SCT050 13/09 Q1014
Station
Forde / Bringeland
Date/Time
2022-08-17 18:20:00
Wind direction
10°
Wind speed
04 kts
Lowest cloud amount
few clouds
Temperature
13°C
Dew point
9°C
Humidity
76%
QNH
1014 hPa
Weather condition
n/a

Description

Førde Airport, Bringeland is a regional airport located at Bringelandsåsen in Gaular, 16 kilometers south of Førde, in Sogn og Fjordane county, Norway.

Climatology

Borderline Subpolar Oceanic/Continental subarctic climate (because of winter temperatures) (Köppen climate classification Cfc/Dfc) - uniform precipitation distribution, temperatures are moderated by the proximity of the ocean and warm currents - cool summers and comparatively mild winters.

Runways

Designator Length Width Surface Rops
7/25 940 0 UNK No/No

Airport map

Aerial View

SKYbrary Partners:

Safety knowledge contributed by: